createdAt,value
2023-02-11T00:00:59.956Z,13.50
2023-02-11T00:03:27.566Z,15.80
2023-02-11T00:06:00.056Z,16.20
2023-02-11T00:08:28.111Z,15.90
2023-02-11T00:10:57.623Z,18.20
2023-02-11T00:13:25.705Z,16.50
2023-02-11T00:15:53.738Z,17.20
2023-02-11T00:18:21.421Z,14.40
2023-02-11T00:20:49.256Z,16.20
2023-02-11T00:23:16.807Z,12.90
2023-02-11T00:25:45.461Z,14.10
2023-02-11T00:28:13.652Z,14.50
2023-02-11T00:30:41.421Z,15.10
2023-02-11T00:33:09.319Z,13.90
2023-02-11T00:35:38.791Z,16.20
2023-02-11T00:38:09.691Z,16.90
2023-02-11T00:40:38.508Z,18.30
2023-02-11T00:43:07.525Z,17.10
2023-02-11T00:45:35.094Z,17.00
2023-02-11T00:48:03.173Z,15.80
2023-02-11T00:50:30.774Z,16.80
2023-02-11T00:52:59.097Z,18.30
2023-02-11T00:55:30.595Z,16.20
2023-02-11T00:57:59.439Z,17.60
2023-02-11T01:00:27.348Z,17.30
2023-02-11T01:05:37.230Z,17.60
2023-02-11T01:08:07.543Z,16.40
2023-02-11T01:10:35.195Z,16.40
2023-02-11T01:13:03.005Z,15.80
2023-02-11T01:15:30.810Z,17.30
2023-02-11T01:17:58.651Z,14.80
2023-02-11T01:20:28.646Z,16.20
2023-02-11T01:22:57.609Z,14.70
2023-02-11T01:25:25.233Z,16.80
2023-02-11T01:27:52.844Z,16.30
2023-02-11T01:30:35.268Z,17.90
2023-02-11T01:33:05.201Z,18.70
2023-02-11T01:35:32.779Z,14.20
2023-02-11T01:38:00.596Z,15.80
2023-02-11T01:40:28.183Z,16.80
2023-02-11T01:42:55.782Z,17.00
2023-02-11T01:45:56.811Z,16.40
2023-02-11T01:48:27.969Z,18.30
2023-02-11T01:51:00.353Z,15.30
2023-02-11T01:53:50.490Z,14.00
2023-02-11T01:56:38.150Z,15.50
2023-02-11T01:59:12.873Z,15.60
2023-02-11T02:01:45.752Z,15.90
2023-02-11T02:04:16.871Z,15.40
2023-02-11T02:06:49.784Z,14.00
2023-02-11T02:09:22.471Z,15.20
2023-02-11T02:11:52.368Z,13.90
2023-02-11T02:14:20.097Z,13.90
2023-02-11T02:16:48.128Z,14.70
2023-02-11T02:19:48.638Z,16.60
2023-02-11T02:22:50.922Z,14.10
2023-02-11T02:25:35.772Z,13.80
2023-02-11T02:28:17.693Z,16.60
2023-02-11T02:31:10.273Z,14.50
2023-02-11T02:33:46.303Z,13.70
2023-02-11T02:36:22.216Z,14.80
2023-02-11T02:38:57.452Z,14.00
2023-02-11T02:41:29.404Z,13.00
2023-02-11T02:44:00.388Z,15.50
2023-02-11T02:46:30.805Z,15.50
2023-02-11T02:48:59.130Z,16.40
2023-02-11T02:51:50.826Z,13.70
2023-02-11T02:54:36.190Z,15.80
2023-02-11T02:57:16.536Z,16.50
2023-02-11T03:00:02.748Z,16.40
2023-02-11T03:02:34.660Z,14.90
2023-02-11T03:05:08.168Z,14.60
2023-02-11T03:07:41.440Z,16.40
2023-02-11T03:10:14.469Z,17.00
2023-02-11T03:12:43.436Z,15.90
2023-02-11T03:15:13.584Z,17.20
2023-02-11T03:17:45.816Z,14.00
2023-02-11T03:20:17.421Z,15.10
2023-02-11T03:22:49.346Z,16.00
2023-02-11T03:25:18.044Z,17.40
2023-02-11T03:27:54.081Z,16.80
2023-02-11T03:30:30.643Z,16.90
2023-02-11T03:33:06.479Z,15.80
2023-02-11T03:35:39.490Z,14.70
2023-02-11T03:38:12.137Z,13.40
2023-02-11T03:40:41.382Z,16.00
2023-02-11T03:43:16.505Z,13.90
2023-02-11T03:45:45.537Z,13.80
2023-02-11T03:48:17.811Z,15.70
2023-02-11T03:50:48.165Z,15.10
2023-02-11T03:53:17.423Z,15.70
2023-02-11T03:55:47.167Z,14.40
2023-02-11T03:58:15.097Z,15.20
2023-02-11T04:00:43.910Z,15.50
2023-02-11T04:03:13.327Z,14.70
2023-02-11T04:05:41.192Z,14.70
2023-02-11T04:08:09.050Z,16.10
2023-02-11T04:10:40.611Z,16.30
2023-02-11T04:13:08.212Z,15.20
2023-02-11T04:15:38.232Z,14.10
2023-02-11T04:18:05.972Z,16.60
2023-02-11T04:20:33.655Z,14.80
2023-02-11T04:23:01.704Z,15.00
2023-02-11T04:25:29.309Z,15.20
2023-02-11T04:27:56.850Z,16.20
2023-02-11T04:30:24.458Z,14.20
2023-02-11T04:32:53.523Z,14.30
2023-02-11T04:35:21.515Z,16.40
2023-02-11T04:37:50.638Z,14.50
2023-02-11T04:40:18.528Z,15.20
2023-02-11T04:42:46.121Z,16.70
2023-02-11T04:45:13.644Z,15.80
2023-02-11T04:47:43.686Z,15.00
2023-02-11T04:50:11.584Z,15.90
2023-02-11T04:52:39.193Z,14.70
2023-02-11T04:55:08.306Z,16.50
2023-02-11T04:57:35.868Z,15.30
2023-02-11T05:00:03.867Z,16.10
2023-02-11T05:02:31.464Z,15.60
2023-02-11T05:04:59.013Z,13.60
2023-02-11T05:07:26.708Z,15.20
2023-02-11T05:09:55.692Z,13.20
2023-02-11T05:12:23.278Z,13.80
2023-02-11T05:14:51.864Z,13.90
2023-02-11T05:17:19.480Z,13.60
2023-02-11T05:19:49.504Z,15.10
2023-02-11T05:22:17.744Z,14.00
2023-02-11T05:24:45.356Z,12.70
2023-02-11T05:27:15.116Z,13.50
2023-02-11T05:29:44.922Z,14.00
2023-02-11T05:32:12.545Z,16.90
2023-02-11T05:34:40.327Z,15.30
2023-02-11T05:37:08.980Z,14.90
2023-02-11T05:39:36.588Z,14.60
2023-02-11T05:42:12.525Z,15.10
2023-02-11T05:44:40.185Z,17.50
2023-02-11T05:47:11.173Z,16.30
2023-02-11T05:49:40.599Z,15.50
2023-02-11T05:52:08.419Z,15.20
2023-02-11T05:54:36.002Z,14.00
2023-02-11T05:57:03.694Z,15.80
2023-02-11T05:59:31.686Z,15.20
2023-02-11T06:01:59.270Z,15.80
2023-02-11T06:04:26.898Z,15.10
2023-02-11T06:06:54.528Z,14.90
2023-02-11T06:09:22.104Z,15.20
2023-02-11T06:11:49.647Z,17.20
2023-02-11T06:14:17.242Z,16.90
2023-02-11T06:16:45.079Z,16.00
2023-02-11T06:19:13.252Z,15.10
2023-02-11T06:21:44.235Z,15.40
2023-02-11T06:24:12.657Z,14.60
2023-02-11T06:26:40.597Z,16.10
2023-02-11T06:29:08.985Z,17.10
2023-02-11T06:31:38.676Z,16.00
2023-02-11T06:34:06.566Z,14.80
2023-02-11T06:36:42.646Z,16.00
2023-02-11T06:39:11.918Z,14.90
2023-02-11T06:41:39.931Z,12.60
2023-02-11T06:44:07.587Z,11.80
2023-02-11T06:46:35.484Z,13.40
2023-02-11T06:49:05.195Z,15.10
2023-02-11T06:51:35.015Z,14.60
2023-02-11T06:54:04.991Z,15.50
2023-02-11T06:56:33.112Z,13.90
2023-02-11T06:59:00.989Z,15.30
2023-02-11T07:01:28.754Z,14.40
2023-02-11T07:03:56.356Z,16.30
2023-02-11T07:06:27.126Z,12.90
2023-02-11T07:08:55.506Z,14.70
2023-02-11T07:11:25.688Z,12.30
2023-02-11T07:13:55.993Z,12.60
2023-02-11T07:16:23.977Z,12.50
2023-02-11T07:18:51.607Z,13.80
2023-02-11T07:21:21.483Z,13.00
2023-02-11T07:23:49.414Z,13.40
2023-02-11T07:26:20.717Z,12.30
2023-02-11T07:28:49.029Z,11.20
2023-02-11T07:31:19.254Z,12.10
2023-02-11T07:33:46.922Z,12.60
2023-02-11T07:36:15.876Z,11.90
2023-02-11T07:38:43.769Z,13.40
2023-02-11T07:41:15.772Z,12.90
2023-02-11T07:43:43.687Z,12.80
2023-02-11T07:46:19.289Z,13.10
2023-02-11T07:48:46.981Z,12.00
2023-02-11T07:51:19.898Z,10.60
2023-02-11T07:53:48.554Z,13.10
2023-02-11T07:56:18.268Z,11.10
2023-02-11T07:58:45.919Z,16.00
2023-02-11T08:01:18.651Z,12.10
2023-02-11T08:03:46.592Z,11.90
2023-02-11T08:06:18.926Z,12.50
2023-02-11T08:08:47.624Z,10.90
2023-02-11T08:11:17.067Z,12.00
2023-02-11T08:13:45.079Z,9.90
2023-02-11T08:16:21.288Z,10.50
2023-02-11T08:18:50.409Z,11.70
2023-02-11T08:21:18.749Z,11.90
2023-02-11T08:23:46.330Z,11.70
2023-02-11T08:26:15.862Z,13.10
2023-02-11T08:28:45.176Z,11.20
2023-02-11T08:31:15.850Z,11.90
2023-02-11T08:33:44.251Z,11.10
2023-02-11T08:36:14.069Z,10.80
2023-02-11T08:38:41.892Z,12.20
2023-02-11T08:41:09.486Z,11.10
2023-02-11T08:43:40.980Z,11.00
2023-02-11T08:46:09.588Z,12.20
2023-02-11T08:48:37.371Z,11.40
2023-02-11T08:51:08.069Z,10.50
2023-02-11T08:53:36.110Z,13.50
2023-02-11T08:56:04.565Z,12.60
2023-02-11T08:58:32.218Z,13.50
2023-02-11T09:00:59.901Z,13.80
2023-02-11T09:03:29.032Z,13.90
2023-02-11T09:05:56.654Z,13.70
2023-02-11T09:08:24.205Z,13.90
2023-02-11T09:10:52.023Z,14.60
2023-02-11T09:13:19.925Z,16.00
2023-02-11T09:15:50.535Z,16.20
2023-02-11T09:18:18.113Z,14.80
2023-02-11T09:20:45.723Z,13.20
2023-02-11T09:23:13.320Z,11.90
2023-02-11T09:25:41.239Z,13.10
2023-02-11T09:28:09.263Z,13.50
2023-02-11T09:30:37.489Z,13.90
2023-02-11T09:33:05.114Z,13.20
2023-02-11T09:35:34.072Z,12.60
2023-02-11T09:38:01.825Z,12.40
2023-02-11T09:40:29.465Z,14.10
2023-02-11T09:43:04.302Z,11.20
2023-02-11T09:45:32.458Z,12.90
2023-02-11T09:48:06.261Z,12.20
2023-02-11T09:50:36.026Z,12.10
2023-02-11T09:53:09.625Z,12.10
2023-02-11T09:55:42.030Z,12.00
2023-02-11T09:58:14.352Z,12.20
2023-02-11T10:00:47.337Z,10.00
2023-02-11T10:03:38.598Z,10.50
2023-02-11T10:06:30.972Z,9.50
2023-02-11T10:09:11.497Z,11.80
2023-02-11T10:11:49.582Z,11.40
2023-02-11T10:14:35.270Z,11.00
2023-02-11T10:17:14.271Z,11.60
2023-02-11T10:19:54.934Z,11.40
2023-02-11T10:22:28.228Z,9.70
2023-02-11T10:24:59.407Z,10.70
2023-02-11T10:27:31.576Z,13.00
2023-02-11T10:30:04.514Z,11.90
2023-02-11T10:32:43.622Z,12.40
2023-02-11T10:35:17.300Z,12.00
2023-02-11T10:37:44.947Z,11.40
2023-02-11T10:40:17.148Z,12.30
2023-02-11T10:42:48.978Z,13.10
2023-02-11T10:45:38.110Z,11.00
2023-02-11T10:48:27.375Z,12.20
2023-02-11T10:51:14.477Z,12.70
2023-02-11T10:53:42.882Z,11.10
2023-02-11T10:56:19.605Z,9.60
2023-02-11T10:58:57.469Z,12.60
2023-02-11T11:01:39.726Z,12.50
2023-02-11T11:04:34.138Z,11.20
2023-02-11T11:07:13.437Z,12.70
2023-02-11T11:09:48.257Z,11.40
2023-02-11T11:12:28.342Z,12.30
2023-02-11T11:14:57.867Z,11.50
2023-02-11T11:17:28.735Z,13.70
2023-02-11T11:20:15.469Z,11.50
2023-02-11T11:22:44.757Z,11.60
2023-02-11T11:25:30.244Z,12.20
2023-02-11T11:28:01.521Z,13.40
2023-02-11T11:30:39.437Z,13.10
2023-02-11T11:33:21.173Z,10.50
2023-02-11T11:35:59.558Z,13.40
2023-02-11T11:38:28.282Z,13.30
2023-02-11T11:41:20.061Z,13.50
2023-02-11T11:43:59.484Z,11.60
2023-02-11T11:46:30.323Z,13.50
2023-02-11T11:49:07.297Z,13.80
2023-02-11T11:51:38.557Z,12.60
2023-02-11T11:54:12.491Z,11.00
2023-02-11T11:56:52.894Z,13.70
2023-02-11T11:59:22.032Z,11.70
2023-02-11T12:02:08.444Z,13.60
2023-02-11T12:07:51.827Z,11.70
2023-02-11T12:10:46.839Z,11.20
2023-02-11T12:13:27.138Z,13.10
2023-02-11T12:16:09.215Z,14.30
2023-02-11T12:19:02.193Z,13.10
2023-02-11T12:21:41.339Z,14.30
2023-02-11T12:24:23.317Z,13.70
2023-02-11T12:26:57.504Z,14.00
2023-02-11T12:29:37.041Z,13.50
2023-02-11T12:32:25.786Z,13.70
2023-02-11T12:35:06.360Z,11.70
2023-02-11T12:37:47.809Z,12.60
2023-02-11T12:40:23.094Z,13.50
2023-02-11T12:43:18.285Z,13.10
2023-02-11T12:46:03.733Z,13.10
2023-02-11T12:48:52.035Z,12.70
2023-02-11T12:51:32.520Z,12.20
2023-02-11T12:54:17.105Z,12.30
2023-02-11T12:56:50.054Z,12.90
2023-02-11T12:59:28.906Z,13.50
2023-02-11T13:02:01.923Z,11.70
2023-02-11T13:04:38.153Z,12.00
2023-02-11T13:07:14.467Z,14.50
2023-02-11T13:09:49.010Z,11.90
2023-02-11T13:12:36.379Z,11.70
2023-02-11T13:15:12.784Z,12.60
2023-02-11T13:17:48.050Z,11.20
2023-02-11T13:20:32.673Z,11.40
2023-02-11T13:23:11.058Z,11.00
2023-02-11T13:25:46.341Z,13.10
2023-02-11T13:28:40.796Z,13.10
2023-02-11T13:31:14.729Z,11.90
2023-02-11T13:33:44.833Z,11.90
2023-02-11T13:36:27.410Z,13.00
2023-02-11T13:39:01.580Z,11.60
2023-02-11T13:41:39.151Z,12.40
2023-02-11T13:44:22.481Z,12.10
2023-02-11T13:47:07.541Z,11.00
2023-02-11T13:49:40.255Z,9.60
2023-02-11T13:52:25.454Z,10.90
2023-02-11T13:54:56.853Z,13.10
2023-02-11T13:57:33.219Z,12.70
2023-02-11T14:00:02.634Z,10.50
2023-02-11T14:02:52.137Z,12.10
2023-02-11T14:05:45.028Z,10.80
2023-02-11T14:08:42.543Z,10.80
2023-02-11T14:11:45.524Z,11.80
2023-02-11T14:14:24.577Z,11.60
2023-02-11T14:17:30.308Z,12.70
2023-02-11T14:19:59.833Z,11.50
2023-02-11T14:22:31.078Z,10.00
2023-02-11T14:25:01.203Z,10.90
2023-02-11T14:27:43.239Z,12.40
2023-02-11T14:30:28.973Z,10.40
2023-02-11T14:33:13.858Z,12.00
2023-02-11T14:35:51.391Z,9.90
2023-02-11T14:38:27.651Z,12.70
2023-02-11T14:41:04.167Z,11.50
2023-02-11T14:43:38.811Z,10.20
2023-02-11T14:46:06.680Z,10.80
2023-02-11T14:48:36.867Z,10.50
2023-02-11T14:51:12.285Z,11.10
2023-02-11T14:53:46.099Z,9.50
2023-02-11T14:56:19.951Z,10.70
2023-02-11T14:58:51.549Z,7.80
2023-02-11T15:01:29.539Z,9.70
2023-02-11T15:03:58.950Z,11.40
2023-02-11T15:06:31.185Z,10.80
2023-02-11T15:09:02.545Z,11.50
2023-02-11T15:11:33.697Z,9.80
2023-02-11T15:14:09.389Z,11.90
2023-02-11T15:16:42.580Z,11.10
2023-02-11T15:19:21.322Z,11.90
2023-02-11T15:21:50.456Z,12.30
2023-02-11T15:24:27.725Z,11.90
2023-02-11T15:27:01.298Z,10.00
2023-02-11T15:29:35.251Z,11.40
2023-02-11T15:32:14.733Z,11.30
2023-02-11T15:34:43.959Z,10.00
2023-02-11T15:37:15.816Z,10.80
2023-02-11T15:39:44.169Z,12.10
2023-02-11T15:42:27.067Z,10.80
2023-02-11T15:45:23.321Z,12.90
2023-02-11T15:47:53.088Z,11.90
2023-02-11T15:50:23.762Z,12.60
2023-02-11T15:52:53.336Z,11.20
2023-02-11T15:55:22.232Z,10.80
2023-02-11T15:57:58.063Z,11.60
2023-02-11T16:00:33.461Z,10.10
2023-02-11T16:03:01.875Z,11.60
2023-02-11T16:05:32.197Z,11.70
2023-02-11T16:08:01.378Z,12.20
2023-02-11T16:10:34.403Z,11.50
2023-02-11T16:13:19.364Z,11.30
2023-02-11T16:15:57.391Z,11.30
2023-02-11T16:18:39.331Z,12.20
2023-02-11T16:21:15.579Z,11.40
2023-02-11T16:23:53.477Z,12.60
2023-02-11T16:26:27.057Z,12.30
2023-02-11T16:29:05.373Z,12.80
2023-02-11T16:31:36.299Z,9.50
2023-02-11T16:34:12.551Z,11.30
2023-02-11T16:36:40.826Z,11.20
2023-02-11T16:39:08.740Z,11.20
2023-02-11T16:41:36.377Z,11.60
2023-02-11T16:44:04.154Z,11.50
2023-02-11T16:46:33.214Z,12.20
2023-02-11T16:49:11.227Z,11.50
2023-02-11T16:51:41.416Z,10.90
2023-02-11T16:54:14.087Z,11.20
2023-02-11T16:56:41.783Z,9.40
2023-02-11T16:59:10.359Z,10.40
2023-02-11T17:01:40.030Z,11.10
2023-02-11T17:04:11.250Z,11.80
2023-02-11T17:06:41.196Z,9.10
2023-02-11T17:09:10.846Z,10.20
2023-02-11T17:11:38.496Z,11.70
2023-02-11T17:14:06.246Z,12.90
2023-02-11T17:16:34.068Z,11.90
2023-02-11T17:19:03.188Z,10.10
2023-02-11T17:21:31.573Z,11.50
2023-02-11T17:23:59.931Z,11.40
2023-02-11T17:26:27.898Z,10.50
2023-02-11T17:28:55.472Z,10.80
2023-02-11T17:31:24.035Z,10.40
2023-02-11T17:33:51.927Z,10.00
2023-02-11T17:36:19.537Z,10.10
2023-02-11T17:38:47.276Z,11.40
2023-02-11T17:41:15.214Z,10.90
2023-02-11T17:43:43.731Z,10.90
2023-02-11T17:46:15.309Z,10.70
2023-02-11T17:48:45.512Z,11.00
2023-02-11T17:51:23.036Z,10.40
2023-02-11T17:53:53.243Z,10.60
2023-02-11T17:56:21.213Z,9.50
2023-02-11T17:58:49.159Z,10.00
2023-02-11T18:01:19.073Z,10.80
2023-02-11T18:03:47.407Z,9.60
2023-02-11T18:06:15.733Z,11.10
2023-02-11T18:08:43.277Z,11.70
2023-02-11T18:11:12.284Z,10.40
2023-02-11T18:13:40.089Z,11.50
2023-02-11T18:16:09.669Z,11.70
2023-02-11T18:18:37.689Z,9.90
2023-02-11T18:21:07.834Z,11.00
2023-02-11T18:23:35.614Z,10.30
2023-02-11T18:26:06.423Z,10.60
2023-02-11T18:28:34.621Z,11.70
2023-02-11T18:31:04.344Z,8.80
2023-02-11T18:33:35.819Z,11.30
2023-02-11T18:36:13.589Z,11.90
2023-02-11T18:38:43.652Z,11.10
2023-02-11T18:41:11.311Z,12.50
2023-02-11T18:46:21.650Z,12.10
2023-02-11T18:48:53.758Z,11.80
2023-02-11T18:51:24.204Z,13.80
2023-02-11T18:53:52.699Z,10.90
2023-02-11T18:56:23.006Z,10.60
2023-02-11T18:58:51.943Z,12.50
2023-02-11T19:01:23.717Z,11.70
2023-02-11T19:03:52.433Z,13.00
2023-02-11T19:06:24.080Z,9.80
2023-02-11T19:08:53.358Z,12.30
2023-02-11T19:11:41.546Z,12.50
2023-02-11T19:14:20.340Z,8.90
2023-02-11T19:16:55.002Z,11.80
2023-02-11T19:19:25.259Z,11.60
2023-02-11T19:21:53.119Z,12.40
2023-02-11T19:24:25.544Z,12.20
2023-02-11T19:26:59.315Z,12.50
2023-02-11T19:29:35.433Z,11.20
2023-02-11T19:32:08.691Z,12.00
2023-02-11T19:34:40.980Z,12.90
2023-02-11T19:37:12.978Z,13.00
2023-02-11T19:39:41.379Z,14.50
2023-02-11T19:42:13.961Z,12.20
2023-02-11T19:44:41.683Z,11.10
2023-02-11T19:47:10.127Z,11.90
2023-02-11T19:49:37.961Z,11.70
2023-02-11T19:52:05.971Z,11.10
2023-02-11T19:54:36.057Z,11.20
2023-02-11T19:57:06.879Z,10.60
2023-02-11T19:59:36.990Z,11.40
2023-02-11T20:02:05.434Z,8.70
2023-02-11T20:04:33.486Z,10.90
2023-02-11T20:07:01.364Z,10.40
2023-02-11T20:09:30.458Z,10.30
2023-02-11T20:11:59.295Z,9.70
2023-02-11T20:14:29.447Z,11.10
2023-02-11T20:16:57.039Z,9.10
2023-02-11T20:19:24.791Z,12.20
2023-02-11T20:21:55.095Z,12.00
2023-02-11T20:24:23.971Z,11.70
2023-02-11T20:26:56.254Z,12.40
2023-02-11T20:29:24.994Z,12.80
2023-02-11T20:31:52.967Z,11.30
2023-02-11T20:34:21.363Z,11.70
2023-02-11T20:36:52.213Z,12.20
2023-02-11T20:39:22.013Z,13.30
2023-02-11T20:41:50.630Z,13.10
2023-02-11T20:44:21.240Z,11.80
2023-02-11T20:46:49.630Z,12.10
2023-02-11T20:49:20.814Z,12.00
2023-02-11T20:51:50.584Z,13.60
2023-02-11T20:54:20.528Z,14.20
2023-02-11T20:56:50.454Z,12.90
2023-02-11T20:59:20.287Z,14.50
2023-02-11T21:01:50.039Z,12.60
2023-02-11T21:04:19.858Z,14.10
2023-02-11T21:06:49.362Z,14.30
2023-02-11T21:09:19.323Z,13.50
2023-02-11T21:11:47.914Z,13.40
2023-02-11T21:14:15.685Z,12.70
2023-02-11T21:16:43.367Z,14.80
2023-02-11T21:19:13.148Z,13.20
2023-02-11T21:21:41.286Z,14.90
2023-02-11T21:24:10.577Z,13.80
2023-02-11T21:26:39.327Z,15.90
2023-02-11T21:29:07.818Z,14.50
2023-02-11T21:31:36.744Z,14.70
2023-02-11T21:42:02.494Z,13.10
2023-02-11T21:50:38.308Z,13.60
2023-02-11T22:09:50.839Z,14.00
2023-02-11T22:12:24.228Z,12.90
2023-02-11T22:27:02.172Z,11.70
2023-02-11T22:33:39.336Z,12.70
2023-02-11T22:41:13.091Z,11.30
2023-02-11T23:19:40.854Z,13.80
2023-02-11T23:22:13.443Z,11.40
2023-02-11T23:39:17.471Z,15.30
2023-02-11T23:53:08.405Z,13.50
